Time;durP1;ratioP1;P1;durP2;ratioP2;P2;SDS_P1;SDS_P2;PMS_P1;PMS_P2;Temp;Humidity;BMP_temperature;BMP_pressure;BME280_temperature;BME280_humidity;BME280_pressure;Samples;Min_cycle;Max_cycle;Signal;HPM_P1;HPM_P2
2022/06/09 00:01:13;;;;;;;13.18;10.82;;;15.40;99.90;;;14.50;100.00;100289.88;4942984;28;20026;-73
2022/06/09 00:04:24;;;;;;;14.23;11.15;;;15.40;99.90;;;14.49;100.00;100282.91;4941668;28;20047;-74
2022/06/09 00:07:04;;;;;;;11.80;9.82;;;15.40;99.90;;;14.48;100.00;100286.47;4941061;28;20023;-73
2022/06/09 00:09:37;;;;;;;19.70;9.80;;;15.40;99.90;;;14.50;100.00;100289.88;4943981;28;20179;-74
2022/06/09 00:12:04;;;;;;;20.48;10.27;;;15.50;99.90;;;14.52;100.00;100281.84;4972783;28;20049;-74
2022/06/09 00:14:30;;;;;;;14.75;10.13;;;15.50;99.90;;;14.60;100.00;100284.81;4945170;28;20031;-74
2022/06/09 00:16:56;;;;;;;15.38;9.95;;;15.50;99.90;;;14.64;100.00;100290.75;4937237;28;20078;-73
2022/06/09 00:19:22;;;;;;;14.00;10.15;;;15.50;99.90;;;14.65;100.00;100292.44;4945646;28;20027;-73
2022/06/09 00:21:50;;;;;;;18.23;10.23;;;15.60;99.90;;;14.67;100.00;100283.44;4958245;28;20090;-73
2022/06/09 00:24:17;;;;;;;15.98;9.85;;;15.60;99.90;;;14.75;100.00;100293.47;4958007;28;20475;-74
2022/06/09 00:26:43;;;;;;;15.63;9.90;;;15.60;99.90;;;14.82;100.00;100289.44;4920211;28;20454;-73
2022/06/09 00:29:09;;;;;;;14.13;9.82;;;15.70;99.90;;;14.88;100.00;100294.31;4957963;28;20035;-72
2022/06/09 00:31:35;;;;;;;13.75;9.30;;;15.80;99.90;;;14.96;100.00;100299.06;4929228;28;20116;-73
2022/06/09 00:34:01;;;;;;;16.40;10.32;;;15.90;99.90;;;15.04;100.00;100309.97;4948360;28;20114;-72
2022/06/09 00:36:29;;;;;;;14.10;9.65;;;15.90;99.90;;;15.12;100.00;100306.78;4942116;28;20138;-73
2022/06/09 00:38:57;;;;;;;14.40;10.70;;;16.00;99.90;;;15.20;100.00;100292.94;4944959;28;20031;-73
2022/06/09 00:41:27;;;;;;;12.20;8.77;;;16.10;99.90;;;15.27;100.00;100287.09;4943791;28;20049;-73
2022/06/09 00:44:12;;;;;;;11.50;9.05;;;16.10;99.90;;;15.32;100.00;100292.06;4948020;28;20027;-73
2022/06/09 00:46:38;;;;;;;15.48;9.57;;;16.20;99.90;;;15.36;100.00;100294.34;4948023;28;20027;-73
2022/06/09 00:49:29;;;;;;;13.25;9.63;;;16.20;99.90;;;15.37;100.00;100296.03;4945524;28;20027;-73
2022/06/09 00:51:59;;;;;;;16.80;10.35;;;16.20;99.90;;;15.36;100.00;100294.34;4920996;28;20023;-73
2022/06/09 00:54:30;;;;;;;13.70;9.27;;;16.20;99.90;;;15.39;100.00;100296.78;4959277;28;20018;-74
2022/06/09 00:57:04;;;;;;;16.33;10.68;;;16.20;99.90;;;15.41;100.00;100291.38;4936116;28;20027;-73
2022/06/09 00:59:31;;;;;;;13.40;10.20;;;16.20;99.90;;;15.41;100.00;100291.38;4949199;28;20054;-73
2022/06/09 01:02:00;;;;;;;12.50;10.25;;;16.20;99.90;;;15.39;100.00;100301.25;4957656;28;20120;-73
2022/06/09 01:04:29;;;;;;;13.02;9.70;;;16.20;99.90;;;15.35;100.00;100286.50;4961327;28;20035;-73
2022/06/09 01:07:05;;;;;;;12.02;9.63;;;16.20;99.90;;;15.34;100.00;100290.13;4940767;28;20050;-73
2022/06/09 01:09:31;;;;;;;12.63;9.35;;;16.10;99.90;;;15.33;100.00;100281.34;4945608;28;20073;-73
2022/06/09 01:11:59;;;;;;;15.27;9.40;;;16.20;99.90;;;15.35;100.00;100278.53;4940780;28;20043;-73
2022/06/09 01:14:30;;;;;;;11.45;8.65;;;16.20;99.90;;;15.37;100.00;100268.66;4943768;28;20023;-73
2022/06/09 01:17:41;;;;;;;12.73;10.38;;;16.20;99.90;;;15.42;100.00;100277.16;4951151;28;20545;-74
2022/06/09 01:20:07;;;;;;;13.45;10.27;;;16.20;99.90;;;15.42;100.00;100278.94;4957409;28;20035;-73
2022/06/09 01:23:04;;;;;;;18.65;11.68;;;16.20;99.90;;;15.37;100.00;100274.81;4950605;28;20098;-73
2022/06/09 01:25:54;;;;;;;20.20;12.73;;;16.10;99.90;;;15.32;100.00;100266.38;4957120;28;20596;-74
2022/06/09 01:28:32;;;;;;;18.23;11.90;;;16.20;99.90;;;15.26;100.00;100268.63;4951659;28;20175;-73
2022/06/09 01:31:18;;;;;;;14.20;10.45;;;16.10;99.90;;;15.24;100.00;100279.34;4951599;28;20113;-73
2022/06/09 01:33:58;;;;;;;13.33;10.27;;;16.10;99.90;;;15.25;100.00;100272.22;4951200;28;20067;-73
2022/06/09 01:36:36;;;;;;;18.23;12.18;;;16.20;99.90;;;15.27;100.00;100278.25;4956394;28;20522;-72
2022/06/09 01:39:05;;;;;;;15.02;11.77;;;16.10;99.90;;;15.28;100.00;100272.84;4944314;28;20039;-73
2022/06/09 01:41:33;;;;;;;13.45;9.80;;;16.10;99.90;;;15.28;100.00;100269.34;4904486;28;20069;-73
2022/06/09 01:43:59;;;;;;;15.85;12.18;;;16.10;99.90;;;15.30;100.00;100262.97;4942998;28;20041;-72
2022/06/09 01:46:28;;;;;;;12.98;9.48;;;16.10;99.90;;;15.32;100.00;100271.66;4959142;28;20093;-73
2022/06/09 01:49:01;;;;;;;15.27;10.63;;;16.20;99.90;;;15.33;100.00;100273.38;4961633;28;20027;-73
2022/06/09 01:51:32;;;;;;;14.10;11.85;;;16.20;99.90;;;15.33;100.00;100265.41;4965250;28;20027;-73
2022/06/09 01:54:08;;;;;;;19.35;12.27;;;16.20;99.90;;;15.33;100.00;100265.41;4942473;28;20023;-73
2022/06/09 01:57:25;;;;;;;;;;;16.10;99.90;;;15.25;100.00;100280.16;4945873;28;20058;-74
2022/06/09 02:00:00;;;;;;;13.30;10.98;;;16.10;99.90;;;15.15;100.00;100267.59;4931461;28;20347;-73
2022/06/09 02:02:35;;;;;;;16.67;11.15;;;16.10;99.90;;;15.16;100.00;100277.25;4958523;28;20039;-74
2022/06/09 02:05:18;;;;;;;14.52;11.82;;;16.10;99.90;;;15.17;100.00;100284.25;4948935;28;20026;-73
2022/06/09 02:07:46;;;;;;;12.00;10.50;;;16.10;99.90;;;15.20;100.00;100293.78;4931092;28;20078;-73
2022/06/09 02:10:18;;;;;;;15.57;11.18;;;16.10;99.90;;;15.22;100.00;100286.56;4919201;28;20110;-73
2022/06/09 02:12:45;;;;;;;14.38;11.15;;;16.00;99.90;;;15.23;100.00;100292.72;4959220;28;20023;-73
2022/06/09 02:15:20;;;;;;;17.75;10.52;;;16.10;99.90;;;15.20;100.00;100292.94;4929621;28;20134;-73
2022/06/09 02:17:49;;;;;;;16.63;10.63;;;16.00;99.90;;;15.14;100.00;100294.22;4962165;28;20042;-73
2022/06/09 02:20:19;;;;;;;23.02;11.45;;;16.00;99.90;;;15.11;100.00;100289.16;4939265;28;20138;-73
2022/06/09 02:22:45;;;;;;;21.25;13.50;;;16.00;99.90;;;15.08;100.00;100278.78;4957726;28;20045;-73
2022/06/09 02:25:11;;;;;;;15.05;10.57;;;15.90;99.90;;;15.07;100.00;100292.97;4961410;28;20039;-74
2022/06/09 02:27:37;;;;;;;19.55;12.75;;;15.90;99.90;;;15.08;100.00;100294.69;4961848;28;20046;-73
2022/06/09 02:30:05;;;;;;;19.23;12.93;;;15.90;99.90;;;15.08;100.00;100287.56;4970879;28;20146;-73
2022/06/09 02:32:32;;;;;;;17.50;12.32;;;15.90;99.90;;;15.10;100.00;100298.06;4946177;28;20900;-73
2022/06/09 02:34:58;;;;;;;24.88;15.75;;;15.90;99.90;;;15.11;100.00;100297.09;4948070;28;20038;-73
2022/06/09 02:37:24;;;;;;;24.58;14.70;;;16.00;99.90;;;15.14;100.00;100302.16;4962304;28;20050;-73
2022/06/09 02:39:50;;;;;;;22.85;14.80;;;16.00;99.90;;;15.18;100.00;100295.69;4946965;28;21473;-73
2022/06/09 02:42:15;;;;;;;;;;;16.00;99.90;;;15.17;100.00;100308.09;4963358;28;20031;-73
2022/06/09 02:44:41;;;;;;;22.67;15.80;;;16.00;99.90;;;15.18;100.00;100312.47;4961080;28;19917;-73
2022/06/09 02:47:07;;;;;;;;;;;16.00;99.90;;;15.17;100.00;100304.63;4938012;28;20057;-73
2022/06/09 02:49:33;;;;;;;21.10;14.00;;;16.00;99.90;;;15.19;100.00;100305.34;4954683;28;19933;-73
2022/06/09 02:51:58;;;;;;;21.27;14.80;;;16.10;99.90;;;15.24;100.00;100302.38;4955432;28;20109;-73
2022/06/09 02:54:24;;;;;;;;;;;16.10;99.90;;;15.26;100.00;100311.91;4955052;28;20039;-73
2022/06/09 02:56:50;;;;;;;25.17;15.45;;;16.20;99.90;;;15.28;100.00;100320.59;4961915;28;22744;-73
2022/06/09 02:59:16;;;;;;;;;;;16.20;99.90;;;15.31;100.00;100327.47;4926604;28;20068;-73
2022/06/09 03:01:41;;;;;;;19.90;15.63;;;16.20;99.90;;;15.33;100.00;100317.59;4955931;28;19949;-73
2022/06/09 03:04:07;;;;;;;20.73;15.50;;;16.20;99.90;;;15.35;100.00;100324.47;4938237;28;20041;-73
2022/06/09 03:06:34;;;;;;;20.15;15.75;;;16.20;99.90;;;15.33;100.00;100315.81;4954026;28;20066;-73
2022/06/09 03:09:02;;;;;;;21.63;16.45;;;16.20;99.90;;;15.38;100.00;100316.31;4951587;28;20783;-74
2022/06/09 03:11:28;;;;;;;21.42;14.68;;;16.30;99.90;;;15.42;100.00;100313.44;4942650;28;20506;-73
2022/06/09 03:13:54;;;;;;;22.20;16.30;;;16.30;99.90;;;15.46;100.00;100314.91;4955169;28;20015;-73
2022/06/09 03:16:20;;;;;;;22.88;16.17;;;16.30;99.90;;;15.50;100.00;100313.72;4956352;28;20053;-73
2022/06/09 03:18:45;;;;;;;23.95;15.43;;;16.30;99.90;;;15.42;100.00;100308.13;4936892;28;20538;-73
2022/06/09 03:21:12;;;;;;;;;;;16.30;99.90;;;15.45;100.00;100310.56;4959871;28;20028;-73
2022/06/09 03:23:39;;;;;;;17.80;14.63;;;16.30;99.90;;;15.49;100.00;100314.69;4952908;28;20568;-72
2022/06/09 03:26:06;;;;;;;18.83;13.65;;;16.20;99.90;;;15.56;100.00;100313.25;4961774;28;20062;-73
2022/06/09 03:28:32;;;;;;;20.48;15.05;;;16.40;99.90;;;15.62;100.00;100312.81;4948085;28;20029;-73
2022/06/09 03:30:59;;;;;;;19.92;14.75;;;16.40;99.90;;;15.70;100.00;100313.09;4957039;28;20043;-73
2022/06/09 03:33:25;;;;;;;18.95;13.38;;;16.50;99.90;;;15.74;100.00;100313.72;4953784;28;20057;-73
2022/06/09 03:35:51;;;;;;;16.10;13.27;;;16.50;99.90;;;15.78;100.00;100316.03;4959653;28;20026;-72
2022/06/09 03:38:16;;;;;;;18.20;12.93;;;16.60;99.90;;;15.83;100.00;100317.50;4956890;28;20392;-73
2022/06/09 03:40:43;;;;;;;;;;;16.60;99.90;;;15.84;100.00;100322.69;4959947;28;20503;-73
2022/06/09 03:43:08;;;;;;;22.00;14.45;;;16.60;99.90;;;15.86;100.00;100320.78;4960367;28;20442;-73
2022/06/09 03:45:34;;;;;;;;;;;16.70;99.90;;;15.86;100.00;100328.75;4945045;28;20062;-74
2022/06/09 03:48:01;;;;;;;21.52;15.80;;;16.60;99.90;;;15.82;100.00;100321.13;4952502;28;20354;-73
2022/06/09 03:50:30;;;;;;;20.52;14.85;;;16.60;99.90;;;15.78;100.00;100323.16;4961950;28;20035;-73
2022/06/09 03:52:56;;;;;;;20.05;13.20;;;16.60;99.90;;;15.76;100.00;100322.44;4959527;28;20027;-73
2022/06/09 03:55:23;;;;;;;26.83;15.57;;;16.60;99.90;;;15.72;100.00;100321.81;4946327;28;20376;-73
2022/06/09 03:57:49;;;;;;;20.90;15.90;;;16.60;99.90;;;15.73;100.00;100325.31;4935569;28;20026;-73
2022/06/09 04:00:23;;;;;;;22.08;14.23;;;16.50;99.90;;;15.73;100.00;100323.50;4936325;28;20103;-73
2022/06/09 04:02:49;;;;;;;24.15;15.00;;;16.60;99.90;;;15.77;100.00;100334.75;4961256;28;20045;-73
2022/06/09 04:05:15;;;;;;;33.28;18.00;;;16.60;99.90;;;15.82;100.00;100326.44;4941287;28;20022;-73
2022/06/09 04:07:41;;;;;;;26.75;16.00;;;16.60;99.90;;;15.87;100.00;100329.59;4927833;28;20038;-73
2022/06/09 04:10:15;;;;;;;29.48;18.17;;;16.70;99.90;;;15.93;100.00;100319.34;4959543;28;20023;-74
2022/06/09 04:12:41;;;;;;;22.88;16.55;;;16.70;99.90;;;15.98;100.00;100319.00;4937644;28;20448;-73
2022/06/09 04:15:07;;;;;;;31.00;17.52;;;16.80;99.90;;;16.02;100.00;100324.94;4947050;28;20051;-73
2022/06/09 04:17:32;;;;;;;23.15;17.92;;;16.80;99.90;;;16.07;100.00;100320.09;4975368;28;20114;-73
2022/06/09 04:19:58;;;;;;;28.90;16.95;;;16.90;99.90;;;16.14;100.00;100318.69;4952959;28;20153;-73
2022/06/09 04:22:24;;;;;;;;;;;16.90;99.90;;;16.22;100.00;100326.06;4949887;28;20039;-73
2022/06/09 04:24:50;;;;;;;23.70;17.77;;;17.00;99.90;;;16.22;100.00;100328.72;4951722;28;19907;-73
2022/06/09 04:27:15;;;;;;;;;;;17.00;99.90;;;16.29;100.00;100335.28;4942806;28;20110;-73
2022/06/09 04:29:41;;;;;;;19.73;15.27;;;17.10;99.90;;;16.29;100.00;100335.28;4954410;28;19914;-72
2022/06/09 04:32:07;;;;;;;19.88;14.60;;;17.10;99.90;;;16.35;100.00;100333.00;4933261;28;20118;-72
2022/06/09 04:34:33;;;;;;;20.08;14.27;;;17.10;99.90;;;16.45;100.00;100341.09;4951248;28;20051;-73
2022/06/09 04:36:59;;;;;;;17.67;13.10;;;17.20;99.90;;;16.52;100.00;100344.97;4933754;28;20086;-73
2022/06/09 04:39:25;;;;;;;21.05;12.82;;;17.30;99.90;;;16.59;100.00;100348.84;4958939;28;20391;-73
2022/06/09 04:41:50;;;;;;;18.15;12.40;;;17.30;99.90;;;16.65;100.00;100351.97;4942860;28;20122;-73
2022/06/09 04:44:16;;;;;;;;;;;17.30;99.90;;;16.66;100.00;100348.38;4936239;28;20143;-73
2022/06/09 04:46:42;;;;;;;19.75;12.30;;;17.40;99.90;;;16.66;100.00;100349.22;4941936;28;19910;-72
2022/06/09 04:49:08;;;;;;;15.48;12.25;;;17.40;99.90;;;16.67;100.00;100353.53;4961047;28;20033;-74
2022/06/09 04:51:34;;;;;;;19.83;12.75;;;17.40;99.90;;;16.67;100.00;100352.69;4941173;28;20027;-73
2022/06/09 04:54:00;;;;;;;19.00;12.30;;;17.50;99.90;;;16.65;100.00;100362.59;4961807;28;20121;-73
2022/06/09 04:56:25;;;;;;;;;;;17.40;99.90;;;16.60;100.00;100366.47;4950671;28;20023;-73
2022/06/09 04:58:52;;;;;;;13.80;12.40;;;17.40;99.90;;;16.56;100.00;100359.69;4943478;28;19912;-73
2022/06/09 05:01:31;;;;;;;21.55;12.63;;;17.40;99.90;;;16.57;100.00;100364.06;4960099;28;20011;-72
2022/06/09 05:03:58;;;;;;;18.05;12.73;;;17.40;99.90;;;16.58;100.00;100365.75;4958177;28;20042;-73
2022/06/09 05:06:26;;;;;;;18.65;12.13;;;17.40;99.90;;;16.63;100.00;100364.53;4958696;28;20022;-73
2022/06/09 05:08:53;;;;;;;26.08;11.77;;;17.50;99.90;;;16.65;100.00;100360.81;4942351;28;20074;-73
2022/06/09 05:11:20;;;;;;;16.48;11.77;;;17.40;99.90;;;16.72;100.00;100366.50;4963210;28;20023;-73
2022/06/09 05:13:46;;;;;;;16.95;12.00;;;17.50;99.90;;;16.77;100.00;100365.16;4919971;28;20408;-73
2022/06/09 05:16:14;;;;;;;14.68;11.43;;;17.50;99.90;;;16.83;100.00;100365.69;4953204;28;20443;-73
2022/06/09 05:18:40;;;;;;;15.10;11.45;;;17.60;99.90;;;16.90;100.00;100369.56;4955380;28;20089;-73
2022/06/09 05:21:07;;;;;;;15.48;11.38;;;17.70;99.90;;;16.97;100.00;100374.25;4947064;28;20042;-74
2022/06/09 05:23:34;;;;;;;17.05;12.05;;;17.70;99.90;;;17.05;100.00;100375.47;4938779;28;20049;-73
2022/06/09 05:26:03;;;;;;;14.82;11.60;;;17.80;99.90;;;17.11;100.00;100380.31;4957986;28;23741;-73
2022/06/09 05:28:31;;;;;;;14.10;11.40;;;17.80;99.90;;;17.17;100.00;100385.13;4951774;28;20133;-73
2022/06/09 05:30:57;;;;;;;21.25;11.60;;;17.90;99.90;;;17.23;100.00;100384.63;4943393;28;20035;-73
2022/06/09 05:33:23;;;;;;;12.32;10.60;;;18.00;99.90;;;17.32;100.00;100383.06;4953682;28;20031;-74
2022/06/09 05:35:49;;;;;;;15.50;9.88;;;18.10;99.90;;;17.40;100.00;100392.09;4955574;28;20074;-74
2022/06/09 05:46:36;;;;;;;13.52;9.25;;;18.40;99.90;;;17.73;100.00;100409.00;4944490;28;20034;-73
2022/06/09 05:49:03;;;;;;;18.02;10.32;;;18.50;99.90;;;17.80;100.00;100415.50;4958366;28;20045;-73
2022/06/09 05:51:31;;;;;;;15.98;9.93;;;18.50;99.90;;;17.86;100.00;100423.97;4954065;28;20023;-73
2022/06/09 05:53:58;;;;;;;16.10;9.57;;;18.60;99.90;;;17.92;100.00;100437.66;4961370;28;20189;-73
2022/06/09 05:56:24;;;;;;;21.25;11.02;;;18.70;99.90;;;17.93;100.00;100438.50;4961496;28;20035;-73
2022/06/09 05:58:50;;;;;;;14.52;9.65;;;18.70;99.90;;;18.02;100.00;100440.41;4947570;28;20031;-73
2022/06/09 06:01:18;;;;;;;16.50;9.85;;;18.80;99.90;;;18.11;100.00;100449.47;4931932;28;20038;-73
2022/06/09 06:03:44;;;;;;;18.33;9.40;;;18.80;99.90;;;18.24;100.00;100437.66;4944238;28;20034;-73
2022/06/09 06:08:55;;;;;;;13.00;8.85;;;19.10;99.90;;;18.59;100.00;100446.31;4953231;28;20062;-73
2022/06/09 06:11:21;;;;;;;15.38;8.93;;;19.20;99.90;;;18.79;100.00;100445.50;4961860;28;20983;-73
2022/06/09 06:13:47;;;;;;;10.85;8.57;;;19.40;99.90;;;19.00;100.00;100449.97;4925228;28;20031;-73
2022/06/09 06:16:13;;;;;;;12.90;8.10;;;19.60;99.90;;;19.21;99.44;100460.59;4954727;28;20026;-73
2022/06/09 06:18:39;;;;;;;11.15;7.25;;;19.80;99.90;;;19.57;97.79;100466.38;4944001;28;20019;-74
2022/06/09 06:21:05;;;;;;;9.88;7.40;;;20.20;99.90;;;20.17;95.53;100472.56;4963420;28;20039;-74
2022/06/09 06:23:31;;;;;;;10.25;7.30;;;20.50;99.90;;;20.42;93.18;100464.94;4964286;28;20035;-73
2022/06/09 06:25:58;;;;;;;11.43;7.20;;;20.90;99.90;;;20.94;89.72;100473.50;4898493;28;20082;-73
2022/06/09 06:28:25;;;;;;;10.95;7.55;;;21.40;99.90;;;21.89;86.31;100485.78;4953266;28;20041;-74
2022/06/09 06:30:52;;;;;;;8.07;7.13;;;22.00;99.90;;;22.18;82.81;100486.56;4952523;28;20121;-73
2022/06/09 06:33:18;;;;;;;9.50;7.30;;;22.00;99.90;;;22.37;80.65;100491.81;4957784;28;20502;-73
2022/06/09 06:35:45;;;;;;;8.15;6.50;;;22.70;99.90;;;22.83;78.61;100486.31;4946226;28;20050;-73
2022/06/09 06:38:10;;;;;;;9.60;7.28;;;23.10;99.90;;;24.09;75.24;100505.44;4924123;28;20097;-74
2022/06/09 06:40:36;;;;;;;9.60;6.80;;;24.30;99.90;;;26.15;67.31;100507.63;4936612;28;20115;-74
2022/06/09 06:43:03;;;;;;;12.65;6.38;;;25.70;99.90;;;27.86;60.67;100517.00;4961149;28;20035;-74
2022/06/09 06:45:29;;;;;;;8.93;5.80;;;27.40;99.90;;;29.86;55.45;100518.66;4953236;28;20038;-73
2022/06/09 06:47:56;;;;;;;5.18;4.65;;;29.20;99.90;;;31.52;50.17;100531.53;4974819;28;20043;-74
2022/06/09 06:50:23;;;;;;;6.35;4.80;;;30.40;99.90;;;32.11;46.66;100547.88;4960809;28;20045;-73
2022/06/09 06:52:49;;;;;;;16.83;4.53;;;31.20;98.50;;;32.75;45.07;100552.28;4959963;28;20034;-73
2022/06/09 06:55:18;;;;;;;4.75;3.92;;;31.60;96.70;;;32.62;45.56;100568.75;4932025;28;20031;-74
2022/06/09 06:57:44;;;;;;;5.60;3.60;;;31.90;97.30;;;31.82;46.12;100566.41;4953082;28;20039;-74
2022/06/09 07:00:16;;;;;;;8.27;3.70;;;31.50;95.90;;;30.80;47.21;100563.16;4945104;28;21618;-73
2022/06/09 07:02:42;;;;;;;8.02;3.53;;;30.80;97.10;;;30.05;48.29;100569.47;4946129;28;20055;-74
2022/06/09 07:05:09;;;;;;;6.50;3.40;;;30.20;98.20;;;29.76;49.91;100567.91;4960188;28;20026;-74
2022/06/09 07:07:36;;;;;;;3.90;3.15;;;29.80;96.70;;;29.50;48.67;100583.97;4938253;28;20412;-74
2022/06/09 07:10:04;;;;;;;4.82;3.17;;;29.40;98.40;;;29.15;49.66;100582.06;4950918;28;20042;-74
2022/06/09 07:12:31;;;;;;;5.68;3.45;;;29.20;97.30;;;28.79;50.33;100588.44;4959030;28;20035;-74
2022/06/09 07:14:56;;;;;;;4.78;2.70;;;28.80;98.40;;;28.55;51.12;100591.50;4962774;28;20042;-74
2022/06/09 07:17:23;;;;;;;4.72;2.75;;;28.60;98.20;;;28.69;50.53;100593.31;4952679;28;20949;-73
2022/06/09 07:19:49;;;;;;;3.58;2.80;;;28.80;99.20;;;29.36;49.43;100597.44;4962191;28;20388;-74
2022/06/09 07:22:14;;;;;;;10.48;2.67;;;29.40;97.90;;;30.44;46.77;100614.09;4943548;28;20043;-73
2022/06/09 07:24:41;;;;;;;4.90;2.70;;;30.30;97.20;;;31.70;44.23;100628.00;4912113;28;20660;-74
2022/06/09 07:27:07;;;;;;;4.90;2.65;;;31.00;95.70;;;32.10;43.46;100636.09;4950545;28;20073;-74
2022/06/09 07:29:32;;;;;;;5.43;2.80;;;31.70;93.00;;;32.96;40.39;100649.25;4946714;28;20031;-74
2022/06/09 07:31:59;;;;;;;9.15;2.78;;;31.90;92.10;;;32.11;41.69;100644.00;4959550;28;20093;-74
2022/06/09 07:34:25;;;;;;;7.97;2.90;;;31.30;92.90;;;30.51;44.31;100635.03;4935203;28;20035;-74
2022/06/09 07:36:51;;;;;;;4.45;2.90;;;30.30;92.90;;;29.05;46.37;100638.47;4960156;28;20030;-74
2022/06/09 07:39:17;;;;;;;6.20;2.85;;;29.40;94.60;;;28.40;48.21;100627.59;4953523;28;20058;-74
2022/06/09 07:41:43;;;;;;;8.43;3.00;;;28.70;95.00;;;27.83;49.06;100631.81;4960774;28;20559;-74
2022/06/09 07:44:10;;;;;;;4.90;2.92;;;27.90;95.90;;;26.78;51.42;100619.09;4948935;28;20554;-74
2022/06/09 07:46:36;;;;;;;5.75;2.90;;;27.30;96.90;;;26.35;52.80;100621.38;4926662;28;20538;-74
2022/06/09 07:49:03;;;;;;;4.82;3.03;;;26.60;98.30;;;25.61;55.67;100622.63;4959871;28;20023;-74
2022/06/09 07:51:30;;;;;;;4.93;2.83;;;26.30;99.70;;;25.75;56.36;100625.47;4954843;28;20038;-74
2022/06/09 07:53:57;;;;;;;11.27;3.45;;;26.30;99.90;;;26.29;55.51;100623.94;4943676;28;20023;-74
2022/06/09 07:56:23;;;;;;;4.07;2.65;;;26.50;99.90;;;26.93;54.16;100631.81;4969278;28;20018;-73
2022/06/09 07:58:49;;;;;;;5.90;2.72;;;27.10;99.90;;;27.56;51.66;100630.59;4944184;28;20513;-73
2022/06/09 08:01:17;;;;;;;3.65;2.65;;;27.50;98.00;;;28.14;50.03;100643.47;4953519;28;20037;-74
2022/06/09 08:03:43;;;;;;;2.47;2.25;;;28.00;97.70;;;28.67;48.83;100662.28;4951401;28;20031;-74
2022/06/09 08:06:13;;;;;;;5.18;2.35;;;28.50;96.70;;;29.16;47.39;100675.09;4953063;28;22283;-74
2022/06/09 08:08:42;;;;;;;4.68;2.03;;;28.90;96.10;;;29.16;47.03;100675.09;4950256;28;20073;-73
2022/06/09 08:11:11;;;;;;;4.00;2.17;;;29.00;97.30;;;29.28;48.00;100678.09;4950420;28;20220;-74
2022/06/09 08:13:37;;;;;;;3.42;2.10;;;29.00;96.50;;;28.87;48.09;100676.03;4950607;28;20079;-74
2022/06/09 08:16:05;;;;;;;5.30;2.28;;;28.70;96.70;;;28.50;50.16;100683.31;4938302;28;20122;-74
2022/06/09 08:18:32;;;;;;;3.08;2.00;;;28.50;95.50;;;28.62;48.13;100689.94;4949158;28;20116;-74
2022/06/09 08:20:58;;;;;;;4.93;2.20;;;28.70;96.20;;;29.22;47.68;100696.84;4948663;28;20714;-74
2022/06/09 08:23:28;;;;;;;3.13;1.70;;;28.90;95.30;;;29.36;46.00;100707.81;4957860;28;20403;-74
2022/06/09 08:25:59;;;;;;;3.92;1.92;;;29.20;95.70;;;29.76;46.25;100698.16;4945942;28;20035;-80
2022/06/09 08:28:26;;;;;;;3.13;2.20;;;29.30;94.20;;;29.50;44.76;100706.88;4943797;28;20047;-74
2022/06/09 08:30:59;;;;;;;8.15;2.30;;;29.20;95.00;;;29.15;46.72;100705.94;4955196;28;20023;-73
2022/06/09 08:33:27;;;;;;;4.65;2.38;;;29.20;94.90;;;29.07;46.85;100715.00;4956569;28;20035;-74
2022/06/09 08:35:54;;;;;;;2.80;2.10;;;29.00;95.00;;;28.88;47.63;100711.06;4941972;28;20062;-73
2022/06/09 08:38:21;;;;;;;6.18;2.20;;;29.00;95.40;;;28.90;48.39;100711.72;4921658;28;20039;-74
2022/06/09 08:41:17;;;;;;;5.57;2.38;;;28.80;95.20;;;28.40;49.27;100710.66;4913810;28;20093;-74
2022/06/09 08:44:06;;;;;;;3.17;2.13;;;28.90;96.90;;;28.84;47.70;100716.03;4952822;28;20062;-74
2022/06/09 08:47:28;;;;;;;8.82;2.40;;;29.10;94.50;;;28.61;46.77;100716.16;4957457;28;20039;-74
2022/06/09 08:50:19;;;;;;;5.75;2.53;;;28.70;95.10;;;28.18;49.57;100715.16;4940578;28;20122;-74
2022/06/09 08:53:24;;;;;;;6.78;2.00;;;28.70;96.50;;;28.56;48.97;100713.19;4940756;28;20369;-74
2022/06/09 08:56:29;;;;;;;7.45;2.00;;;28.80;95.30;;;28.88;46.86;100723.75;4950653;28;20038;-74
2022/06/09 08:59:03;;;;;;;4.32;2.15;;;29.20;95.70;;;29.19;46.93;100727.03;4943573;28;20031;-75
2022/06/09 09:01:45;;;;;;;4.45;2.28;;;29.40;94.60;;;29.47;46.10;100737.09;4925114;28;20034;-74
2022/06/09 09:04:37;;;;;;;5.20;2.10;;;29.60;94.80;;;29.32;44.96;100731.75;4943043;28;20518;-74
2022/06/09 09:07:30;;;;;;;4.72;2.03;;;29.50;94.80;;;29.09;46.70;100723.81;4946606;28;20084;-74
2022/06/09 09:10:37;;;;;;;6.28;1.67;;;29.40;94.60;;;29.03;46.27;100730.00;4945753;28;20034;-77
2022/06/09 09:13:25;;;;;;;6.10;1.58;;;29.30;95.10;;;29.11;47.83;100731.75;4993795;23;20433;-76
2022/06/09 09:16:19;;;;;;;5.38;1.67;;;29.40;94.60;;;29.14;47.21;100737.63;4998167;28;20038;-77
2022/06/09 09:18:53;;;;;;;3.53;1.70;;;29.10;94.20;;;28.65;47.78;100738.31;4972068;28;20103;-74
2022/06/09 09:21:59;;;;;;;2.45;1.23;;;29.10;94.70;;;28.86;46.27;100747.53;4971692;28;20022;-73
2022/06/09 09:25:06;;;;;;;2.85;1.20;;;29.10;94.90;;;28.78;46.84;100751.19;4990436;28;20034;-73
2022/06/09 09:27:39;;;;;;;3.53;1.10;;;29.00;94.70;;;28.68;47.01;100753.34;4964732;28;20038;-82
2022/06/09 09:30:27;;;;;;;6.15;1.10;;;28.90;94.20;;;28.41;47.17;100759.22;4959634;28;20076;-82
2022/06/09 09:32:56;;;;;;;4.25;1.00;;;28.80;95.10;;;28.50;48.21;100754.56;4919851;28;20150;-75
2022/06/09 09:35:44;;;;;;;2.58;0.90;;;28.80;95.30;;;28.66;47.71;100756.25;4953882;28;20037;-75
2022/06/09 09:38:15;;;;;;;2.38;0.90;;;28.90;94.90;;;28.82;45.79;100763.31;4970658;28;20050;-75
2022/06/09 09:41:00;;;;;;;9.48;1.00;;;28.80;92.80;;;28.53;46.81;100765.06;4973712;28;20057;-75
2022/06/09 09:43:40;;;;;;;1.25;0.70;;;28.90;94.20;;;28.90;46.02;100767.75;5008966;28;20037;-75
2022/06/09 09:46:33;;;;;;;2.05;0.77;;;29.10;93.50;;;29.09;44.05;100783.44;4979860;28;20038;-75
2022/06/09 09:49:15;;;;;;;0.95;0.63;;;29.20;92.20;;;29.02;43.54;100785.22;4971124;28;20107;-75
2022/06/09 09:51:46;;;;;;;1.60;0.65;;;29.10;91.90;;;28.65;43.85;100803.31;4971609;28;20102;-75
2022/06/09 09:54:44;;;;;;;5.65;0.88;;;28.90;92.10;;;28.39;43.98;100799.19;4970978;28;21066;-75
2022/06/09 09:57:19;;;;;;;1.88;0.50;;;28.60;92.30;;;28.14;44.40;100808.59;4919281;28;20038;-75
2022/06/09 09:59:57;;;;;;;0.43;0.30;;;28.40;92.70;;;27.97;44.77;100797.94;4972261;28;20471;-75
2022/06/09 10:08:51;;;;;;;1.25;0.50;;;27.80;92.60;;;27.24;45.03;100814.72;4997618;28;20168;-75
2022/06/09 10:11:54;;;;;;;1.33;0.70;;;27.60;93.50;;;27.06;47.10;100806.84;4982674;28;20043;-75
2022/06/09 10:14:32;;;;;;;2.15;0.70;;;27.40;93.50;;;26.89;47.28;100806.94;4995683;28;20033;-81
2022/06/09 10:17:01;;;;;;;3.58;0.63;;;27.30;94.20;;;26.74;48.10;100814.09;4982656;28;20092;-75
2022/06/09 10:19:36;;;;;;;2.67;0.90;;;27.10;94.60;;;26.62;48.70;100813.63;4983591;28;20102;-74
2022/06/09 10:22:18;;;;;;;5.20;0.95;;;27.00;95.10;;;26.50;49.54;100823.06;4975662;28;20411;-75
2022/06/09 10:25:13;;;;;;;2.05;0.80;;;26.80;94.60;;;26.38;48.72;100820.75;4981431;28;20034;-77
2022/06/09 10:27:49;;;;;;;2.40;0.90;;;26.80;95.90;;;26.49;50.07;100813.31;4988566;28;20029;-73
2022/06/09 10:30:29;;;;;;;1.95;0.88;;;26.80;95.50;;;26.61;49.78;100811.97;4980738;28;20048;-74
2022/06/09 10:33:04;;;;;;;1.58;0.70;;;26.90;95.20;;;26.65;49.22;100807.88;4978972;28;20046;-74
2022/06/09 10:36:08;;;;;;;2.92;0.80;;;26.90;95.50;;;26.75;48.94;100804.97;4997237;28;20061;-73
2022/06/09 10:38:48;;;;;;;2.83;1.15;;;27.10;95.70;;;26.97;48.02;100811.44;4935407;28;20410;-74
2022/06/09 10:41:42;;;;;;;1.58;0.90;;;27.30;95.10;;;27.40;47.97;100820.84;4987651;28;20042;-74